createdAt,value
2017-08-22T00:00:42.624Z,77.60
2017-08-22T00:03:10.262Z,78.10
2017-08-22T00:05:37.919Z,78.30
2017-08-22T00:08:05.555Z,78.40
2017-08-22T00:10:33.181Z,78.90
2017-08-22T00:13:00.844Z,78.40
2017-08-22T00:15:28.479Z,77.90
2017-08-22T00:17:56.171Z,78.80
2017-08-22T00:20:23.851Z,79.60
2017-08-22T00:22:51.492Z,79.60
2017-08-22T00:25:19.128Z,80.00
2017-08-22T00:27:46.792Z,80.30
2017-08-22T00:30:14.431Z,79.40
2017-08-22T00:32:42.059Z,79.20
2017-08-22T00:35:09.724Z,79.90
2017-08-22T00:37:37.360Z,80.20
2017-08-22T00:40:04.993Z,82.00
2017-08-22T00:42:32.659Z,81.70
2017-08-22T00:45:00.296Z,82.50
2017-08-22T00:47:27.933Z,82.00
2017-08-22T00:49:55.619Z,81.90
2017-08-22T00:52:23.329Z,82.90
2017-08-22T00:54:50.961Z,82.90
2017-08-22T00:57:19.191Z,81.90
2017-08-22T00:59:46.824Z,80.90
2017-08-22T01:02:14.464Z,80.70
2017-08-22T01:04:42.147Z,81.10
2017-08-22T01:07:09.779Z,81.40
2017-08-22T01:09:37.422Z,80.30
2017-08-22T01:12:05.098Z,80.50
2017-08-22T01:14:32.734Z,80.70
2017-08-22T01:17:00.373Z,81.50
2017-08-22T01:19:28.040Z,80.90
2017-08-22T01:21:55.688Z,81.30
2017-08-22T01:24:23.342Z,81.20
2017-08-22T01:26:51.008Z,80.50
2017-08-22T01:29:18.646Z,81.10
2017-08-22T01:31:46.304Z,80.60
2017-08-22T01:34:13.963Z,80.50
2017-08-22T01:36:41.603Z,81.50
2017-08-22T01:39:09.229Z,82.00
2017-08-22T01:41:36.993Z,81.80
2017-08-22T01:44:04.623Z,82.10
2017-08-22T01:46:32.263Z,82.30
2017-08-22T01:48:59.933Z,82.20
2017-08-22T01:51:27.613Z,82.80
2017-08-22T01:53:55.244Z,82.80
2017-08-22T01:56:22.917Z,82.60
2017-08-22T01:58:50.579Z,81.70
2017-08-22T02:01:18.212Z,81.90
2017-08-22T02:03:45.930Z,82.00
2017-08-22T02:06:13.578Z,81.40
2017-08-22T02:08:41.227Z,82.60
2017-08-22T02:11:08.904Z,82.60
2017-08-22T02:13:36.546Z,82.40
2017-08-22T02:16:04.198Z,83.10
2017-08-22T02:18:31.893Z,83.00
2017-08-22T02:20:59.528Z,82.90
2017-08-22T02:23:27.243Z,82.70
2017-08-22T02:25:54.920Z,82.80
2017-08-22T02:28:22.567Z,83.10
2017-08-22T02:30:50.225Z,82.80
2017-08-22T02:33:17.880Z,83.40
2017-08-22T02:35:45.534Z,83.60
2017-08-22T02:38:13.347Z,83.90
2017-08-22T02:40:41.029Z,84.00
2017-08-22T02:43:08.678Z,84.20
2017-08-22T02:45:36.546Z,84.80
2017-08-22T02:48:04.237Z,84.50
2017-08-22T02:50:31.885Z,84.50
2017-08-22T02:52:59.531Z,85.20
2017-08-22T02:55:27.289Z,84.90
2017-08-22T02:57:54.926Z,83.80
2017-08-22T03:00:22.563Z,83.90
2017-08-22T03:02:50.248Z,83.80
2017-08-22T03:05:17.896Z,83.80
2017-08-22T03:07:45.578Z,84.10
2017-08-22T03:10:13.352Z,84.50
2017-08-22T03:12:40.993Z,83.90
2017-08-22T03:15:08.643Z,84.30
2017-08-22T03:17:36.333Z,84.40
2017-08-22T03:20:03.964Z,85.20
2017-08-22T03:22:31.597Z,84.40
2017-08-22T03:24:59.273Z,84.80
2017-08-22T03:27:26.901Z,84.20
2017-08-22T03:29:54.553Z,84.40
2017-08-22T03:32:22.225Z,85.10
2017-08-22T03:34:49.873Z,84.90
2017-08-22T03:37:17.626Z,85.00
2017-08-22T03:39:45.307Z,84.50
2017-08-22T03:42:12.954Z,84.40
2017-08-22T03:44:40.593Z,84.70
2017-08-22T03:47:08.274Z,85.00
2017-08-22T03:49:35.926Z,84.70
2017-08-22T03:52:03.558Z,84.90
2017-08-22T03:54:31.220Z,84.60
2017-08-22T03:56:58.861Z,83.60
2017-08-22T03:59:26.669Z,83.70
2017-08-22T04:01:54.354Z,83.50
2017-08-22T04:04:22.005Z,83.50
2017-08-22T04:06:49.627Z,84.20
2017-08-22T04:09:17.309Z,84.10
2017-08-22T04:11:44.952Z,82.80
2017-08-22T04:14:12.692Z,83.10
2017-08-22T04:16:40.378Z,83.50
2017-08-22T04:19:08.029Z,84.10
2017-08-22T04:21:35.772Z,82.90
2017-08-22T04:24:03.445Z,82.40
2017-08-22T04:26:31.075Z,82.20
2017-08-22T04:28:58.709Z,82.30
2017-08-22T04:31:26.600Z,83.00
2017-08-22T04:33:54.219Z,82.60
2017-08-22T04:36:21.856Z,82.40
2017-08-22T04:38:49.556Z,82.80
2017-08-22T04:41:17.239Z,82.70
2017-08-22T04:43:44.923Z,82.30
2017-08-22T04:46:12.603Z,82.20
2017-08-22T04:48:40.274Z,82.70
2017-08-22T04:51:07.901Z,80.90
2017-08-22T04:53:35.626Z,81.70
2017-08-22T04:56:03.324Z,81.70
2017-08-22T04:58:30.947Z,80.90
2017-08-22T05:00:58.615Z,78.90
2017-08-22T05:03:26.360Z,74.40
2017-08-22T05:05:53.995Z,71.80
2017-08-22T05:08:21.660Z,68.70
2017-08-22T05:10:49.412Z,68.00
2017-08-22T05:13:17.052Z,67.50
2017-08-22T05:15:44.730Z,66.60
2017-08-22T05:18:12.370Z,64.00
2017-08-22T05:20:40.001Z,63.90
2017-08-22T05:23:07.705Z,63.30
2017-08-22T05:25:35.360Z,61.90
2017-08-22T05:28:03.012Z,62.90
2017-08-22T05:30:30.684Z,63.40
2017-08-22T05:32:58.332Z,62.70
2017-08-22T05:35:26.104Z,62.20
2017-08-22T05:37:53.781Z,61.90
2017-08-22T05:40:21.429Z,63.40
2017-08-22T05:42:50.009Z,65.00
2017-08-22T05:45:17.828Z,63.40
2017-08-22T05:47:45.472Z,62.80
2017-08-22T05:50:13.163Z,62.10
2017-08-22T05:52:40.837Z,64.00
2017-08-22T05:55:08.484Z,65.20
2017-08-22T05:57:36.204Z,68.00
2017-08-22T06:00:03.873Z,64.90
2017-08-22T06:02:31.512Z,65.50
2017-08-22T06:04:59.183Z,64.70
2017-08-22T06:07:26.845Z,66.40
2017-08-22T06:09:54.491Z,65.40
2017-08-22T06:12:22.119Z,63.70
2017-08-22T06:14:49.788Z,64.00
2017-08-22T06:17:17.432Z,63.40
2017-08-22T06:19:45.073Z,61.60
2017-08-22T06:22:12.737Z,62.40
2017-08-22T06:24:40.385Z,62.20
2017-08-22T06:27:08.016Z,62.40
2017-08-22T06:29:35.709Z,63.40
2017-08-22T06:32:03.355Z,62.60
2017-08-22T06:34:30.989Z,64.70
2017-08-22T06:36:58.671Z,62.20
2017-08-22T06:39:26.341Z,60.50
2017-08-22T06:41:53.998Z,60.70
2017-08-22T06:44:21.688Z,62.90
2017-08-22T06:46:49.334Z,62.50
2017-08-22T06:49:16.980Z,61.80
2017-08-22T06:51:44.645Z,60.40
2017-08-22T06:54:12.295Z,60.90
2017-08-22T06:56:39.932Z,57.60
2017-08-22T06:59:07.599Z,59.80
2017-08-22T07:01:35.233Z,57.90
2017-08-22T07:04:02.877Z,57.60
2017-08-22T07:06:30.548Z,57.80
2017-08-22T07:08:58.190Z,59.00
2017-08-22T07:11:25.832Z,57.30
2017-08-22T07:13:53.581Z,57.50
2017-08-22T07:16:21.223Z,58.50
2017-08-22T07:18:48.852Z,58.80
2017-08-22T07:21:16.577Z,57.30
2017-08-22T07:23:44.236Z,56.90
2017-08-22T07:26:11.871Z,57.30
2017-08-22T07:28:39.556Z,57.80
2017-08-22T07:31:07.228Z,54.20
2017-08-22T07:33:34.864Z,55.60
2017-08-22T07:36:02.543Z,56.70
2017-08-22T07:38:30.197Z,57.20
2017-08-22T07:40:57.861Z,59.50
2017-08-22T07:43:25.523Z,60.50
2017-08-22T07:45:53.215Z,60.80
2017-08-22T07:48:20.868Z,61.70
2017-08-22T07:50:48.534Z,61.30
2017-08-22T07:53:16.201Z,58.70
2017-08-22T07:55:43.836Z,60.60
2017-08-22T07:58:11.501Z,58.10
2017-08-22T08:00:39.153Z,58.50
2017-08-22T08:03:06.789Z,60.00
2017-08-22T08:05:34.458Z,58.20
2017-08-22T08:08:02.099Z,59.80
2017-08-22T08:10:29.766Z,58.60
2017-08-22T08:12:57.479Z,57.90
2017-08-22T08:15:25.145Z,59.30
2017-08-22T08:17:52.820Z,56.80
2017-08-22T08:20:20.534Z,55.30
2017-08-22T08:22:48.143Z,55.80
2017-08-22T08:25:15.789Z,58.40
2017-08-22T08:27:43.451Z,52.80
2017-08-22T08:30:11.072Z,53.00
2017-08-22T08:32:38.710Z,49.30
2017-08-22T08:35:06.401Z,52.70
2017-08-22T08:37:34.012Z,53.00
2017-08-22T08:40:01.641Z,52.80
2017-08-22T08:42:29.295Z,52.60
2017-08-22T08:44:56.906Z,51.50
2017-08-22T08:47:24.521Z,53.50
2017-08-22T08:49:52.164Z,54.20
2017-08-22T08:52:19.796Z,52.50
2017-08-22T08:54:47.449Z,53.00
2017-08-22T08:57:15.123Z,49.50
2017-08-22T08:59:42.756Z,42.60
2017-08-22T09:02:10.397Z,41.70
2017-08-22T09:04:38.044Z,33.40
2017-08-22T09:07:05.679Z,34.70
2017-08-22T09:09:33.320Z,34.10
2017-08-22T09:12:00.963Z,33.70
2017-08-22T09:14:28.595Z,35.50
2017-08-22T09:16:56.207Z,37.20
2017-08-22T09:19:23.847Z,35.50
2017-08-22T09:21:52.415Z,41.80
2017-08-22T09:24:20.048Z,41.20
2017-08-22T09:26:47.692Z,44.20
2017-08-22T09:29:15.300Z,42.50
2017-08-22T09:31:42.912Z,39.40
2017-08-22T09:34:10.554Z,33.30
2017-08-22T09:36:38.169Z,28.60
2017-08-22T09:39:05.771Z,26.60
2017-08-22T09:41:33.414Z,26.30
2017-08-22T09:44:01.057Z,26.50
2017-08-22T09:46:28.670Z,26.50
2017-08-22T09:49:35.985Z,25.20
2017-08-22T09:52:03.599Z,28.50
2017-08-22T09:54:31.358Z,29.20
2017-08-22T09:56:59.000Z,34.40
2017-08-22T09:59:26.637Z,38.00
2017-08-22T10:01:54.253Z,37.10
2017-08-22T10:04:21.917Z,42.10
2017-08-22T10:06:49.528Z,43.70
2017-08-22T10:09:17.175Z,41.20
2017-08-22T10:11:44.820Z,38.00
2017-08-22T10:14:12.428Z,34.80
2017-08-22T10:16:40.064Z,28.80
2017-08-22T10:19:07.709Z,28.00
2017-08-22T10:21:35.323Z,28.90
2017-08-22T10:24:02.941Z,29.60
2017-08-22T10:26:30.580Z,28.90
2017-08-22T10:28:58.219Z,26.10
2017-08-22T10:31:25.846Z,26.40
2017-08-22T10:33:53.518Z,27.40
2017-08-22T10:36:21.123Z,29.30
2017-08-22T10:38:48.741Z,30.80
2017-08-22T10:41:16.394Z,31.80
2017-08-22T10:43:44.038Z,31.60
2017-08-22T10:46:11.673Z,33.80
2017-08-22T10:48:39.329Z,34.50
2017-08-22T10:51:06.983Z,36.00
2017-08-22T10:53:34.597Z,37.00
2017-08-22T10:56:02.241Z,43.40
2017-08-22T10:58:29.851Z,45.80
2017-08-22T11:00:57.474Z,46.40
2017-08-22T11:03:25.110Z,46.30
2017-08-22T11:05:52.740Z,47.30
2017-08-22T11:08:20.386Z,48.60
2017-08-22T11:10:48.043Z,48.00
2017-08-22T11:13:15.694Z,50.90
2017-08-22T11:15:43.333Z,49.70
2017-08-22T11:18:11.007Z,50.40
2017-08-22T11:20:38.635Z,43.30
2017-08-22T11:23:06.251Z,43.40
2017-08-22T11:25:33.907Z,44.10
2017-08-22T11:28:01.520Z,43.00
2017-08-22T11:30:29.151Z,45.40
2017-08-22T11:32:56.812Z,47.20
2017-08-22T11:35:24.466Z,45.90
2017-08-22T11:37:52.072Z,47.30
2017-08-22T11:40:19.760Z,48.00
2017-08-22T11:42:47.417Z,47.00
2017-08-22T11:45:15.072Z,45.60
2017-08-22T11:47:42.765Z,47.70
2017-08-22T11:50:10.411Z,48.30
2017-08-22T11:52:38.059Z,45.90
2017-08-22T11:55:05.763Z,47.50
2017-08-22T11:57:33.425Z,48.50
2017-08-22T12:00:01.063Z,49.40
2017-08-22T12:02:28.740Z,51.60
2017-08-22T12:04:56.531Z,52.00
2017-08-22T12:07:24.173Z,48.30
2017-08-22T12:09:52.224Z,49.70
2017-08-22T12:12:19.912Z,46.00
2017-08-22T12:14:47.758Z,45.10
2017-08-22T12:17:15.438Z,45.60
2017-08-22T12:19:43.118Z,43.10
2017-08-22T12:22:10.738Z,40.90
2017-08-22T12:24:38.390Z,37.80
2017-08-22T12:27:06.012Z,39.10
2017-08-22T12:29:33.645Z,38.90
2017-08-22T12:32:01.311Z,36.90
2017-08-22T12:34:28.916Z,35.40
2017-08-22T12:36:56.565Z,36.30
2017-08-22T12:39:24.225Z,35.90
2017-08-22T12:41:51.853Z,34.90
2017-08-22T12:44:19.464Z,36.40
2017-08-22T12:46:47.103Z,38.10
2017-08-22T12:49:14.721Z,37.30
2017-08-22T12:51:42.327Z,36.70
2017-08-22T12:54:09.976Z,34.80
2017-08-22T12:56:37.589Z,34.70
2017-08-22T12:59:05.209Z,33.00
2017-08-22T13:01:32.871Z,34.90
2017-08-22T13:04:00.477Z,31.70
2017-08-22T13:06:29.644Z,33.60
2017-08-22T13:08:57.309Z,30.50
2017-08-22T13:11:24.930Z,31.80
2017-08-22T13:13:52.581Z,28.60
2017-08-22T13:16:20.229Z,29.10
2017-08-22T13:18:47.845Z,28.30
2017-08-22T13:21:15.465Z,29.60
2017-08-22T13:23:43.206Z,26.30
2017-08-22T13:26:10.841Z,25.40
2017-08-22T13:28:38.452Z,25.80
2017-08-22T13:31:06.155Z,23.90
2017-08-22T13:33:33.784Z,25.50
2017-08-22T13:36:01.394Z,24.20
2017-08-22T13:38:29.036Z,23.40
2017-08-22T13:40:56.686Z,24.30
2017-08-22T13:43:24.330Z,24.10
2017-08-22T13:45:51.975Z,22.90
2017-08-22T13:48:19.593Z,21.90
2017-08-22T13:50:48.215Z,23.60
2017-08-22T13:53:15.873Z,20.80
2017-08-22T13:55:43.490Z,21.70
2017-08-22T13:58:11.118Z,19.60
2017-08-22T14:00:38.782Z,18.60
2017-08-22T14:03:06.566Z,18.60
2017-08-22T14:05:34.176Z,18.50
2017-08-22T14:08:01.811Z,17.30
2017-08-22T14:10:29.452Z,18.20
2017-08-22T14:12:57.255Z,18.50
2017-08-22T14:15:24.901Z,18.60
2017-08-22T14:17:52.515Z,18.80
2017-08-22T14:20:20.158Z,20.00
2017-08-22T14:22:47.801Z,19.90
2017-08-22T14:25:15.409Z,20.90
2017-08-22T14:27:43.006Z,20.20
2017-08-22T14:30:10.655Z,20.60
2017-08-22T14:32:38.264Z,20.40
2017-08-22T14:35:05.865Z,20.00
2017-08-22T14:37:33.501Z,21.20
2017-08-22T14:40:01.102Z,21.30
2017-08-22T14:42:28.708Z,21.40
2017-08-22T14:44:56.392Z,19.30
2017-08-22T14:47:24.005Z,20.70
2017-08-22T14:49:51.628Z,20.30
2017-08-22T14:52:19.272Z,22.70
2017-08-22T14:54:46.904Z,21.70
2017-08-22T14:57:14.548Z,20.90
2017-08-22T14:59:42.229Z,23.10
2017-08-22T15:02:09.835Z,22.00
2017-08-22T15:04:37.447Z,24.40
2017-08-22T15:07:05.072Z,23.80
2017-08-22T15:09:32.685Z,23.00
2017-08-22T15:12:00.305Z,24.50
2017-08-22T15:14:27.957Z,24.00
2017-08-22T15:16:55.568Z,23.00
2017-08-22T15:19:23.183Z,24.50
2017-08-22T15:21:50.836Z,24.20
2017-08-22T15:24:18.458Z,24.70
2017-08-22T15:26:46.070Z,26.00
2017-08-22T15:29:13.724Z,27.50
2017-08-22T15:31:41.333Z,26.10
2017-08-22T15:34:08.999Z,23.90
2017-08-22T15:36:36.661Z,24.10
2017-08-22T15:39:04.275Z,23.30
2017-08-22T15:41:31.876Z,24.80
2017-08-22T15:43:59.551Z,25.10
2017-08-22T15:46:27.151Z,26.20
2017-08-22T15:48:54.801Z,26.90
2017-08-22T15:51:22.449Z,25.10
2017-08-22T15:53:50.070Z,23.40
2017-08-22T15:56:17.771Z,27.30
2017-08-22T15:58:45.408Z,26.90
2017-08-22T16:01:13.033Z,27.10
2017-08-22T16:03:40.669Z,26.70
2017-08-22T16:06:08.336Z,29.50
2017-08-22T16:08:35.935Z,26.80
2017-08-22T16:11:03.549Z,27.90
2017-08-22T16:13:31.199Z,29.10
2017-08-22T16:15:58.827Z,27.90
2017-08-22T16:18:26.487Z,28.10
2017-08-22T16:20:54.149Z,29.00
2017-08-22T16:23:21.755Z,29.50
2017-08-22T16:25:49.397Z,27.90
2017-08-22T16:28:17.113Z,26.00
2017-08-22T16:30:44.736Z,27.80
2017-08-22T16:33:12.354Z,27.20
2017-08-22T16:35:39.984Z,27.90
2017-08-22T16:38:07.597Z,28.50
2017-08-22T16:40:35.213Z,27.60
2017-08-22T16:43:02.879Z,27.10
2017-08-22T16:45:30.508Z,24.50
2017-08-22T16:48:15.024Z,28.10
2017-08-22T16:50:42.742Z,29.20
2017-08-22T16:53:10.393Z,25.60
2017-08-22T16:55:38.083Z,26.10
2017-08-22T16:58:05.723Z,28.40
2017-08-22T17:00:33.367Z,26.60
2017-08-22T17:03:01.075Z,27.90
2017-08-22T17:05:28.910Z,29.60
2017-08-22T17:07:56.822Z,30.10
2017-08-22T17:10:24.548Z,29.70
2017-08-22T17:12:52.209Z,29.80
2017-08-22T17:15:19.865Z,30.90
2017-08-22T17:17:47.663Z,31.00
2017-08-22T17:20:15.340Z,31.30
2017-08-22T17:22:43.014Z,33.60
2017-08-22T17:25:10.688Z,33.20
2017-08-22T17:27:38.329Z,34.00
2017-08-22T17:30:05.972Z,33.50
2017-08-22T17:32:33.633Z,32.60
2017-08-22T17:35:01.305Z,34.00
2017-08-22T17:37:28.943Z,33.70
2017-08-22T17:39:56.729Z,34.50
2017-08-22T17:42:24.378Z,34.10
2017-08-22T17:44:52.029Z,37.30
2017-08-22T17:47:20.457Z,38.00
2017-08-22T17:49:48.282Z,38.90
2017-08-22T17:52:16.025Z,40.50
2017-08-22T17:54:43.800Z,40.60
2017-08-22T17:57:11.441Z,40.00
2017-08-22T17:59:39.480Z,41.80
2017-08-22T18:02:07.530Z,44.10
2017-08-22T18:04:35.179Z,43.20
2017-08-22T18:07:02.849Z,44.00
2017-08-22T18:09:30.524Z,44.70
2017-08-22T18:11:58.173Z,45.00
2017-08-22T18:14:25.840Z,45.00
2017-08-22T18:16:53.600Z,46.30
2017-08-22T18:19:21.265Z,46.90
2017-08-22T18:21:48.964Z,47.30
2017-08-22T18:24:16.765Z,49.80
2017-08-22T18:26:44.395Z,49.40
2017-08-22T18:29:12.086Z,50.30
2017-08-22T18:31:39.752Z,49.80
2017-08-22T18:34:07.456Z,52.20
2017-08-22T18:36:35.160Z,54.00
2017-08-22T18:39:02.849Z,55.40
2017-08-22T18:41:30.522Z,55.10
2017-08-22T18:43:58.160Z,54.80
2017-08-22T18:46:25.848Z,52.90
2017-08-22T18:48:53.505Z,55.10
2017-08-22T18:53:55.308Z,55.10
2017-08-22T18:56:22.977Z,57.70
2017-08-22T18:58:50.616Z,57.40
2017-08-22T19:01:18.285Z,58.20
2017-08-22T19:03:45.959Z,58.50
2017-08-22T19:06:13.611Z,59.20
2017-08-22T19:08:41.284Z,60.30
2017-08-22T19:11:08.928Z,60.20
2017-08-22T19:13:36.600Z,61.20
2017-08-22T19:16:04.250Z,60.90
2017-08-22T19:18:31.896Z,61.90
2017-08-22T19:20:59.529Z,61.50
2017-08-22T19:23:27.271Z,62.20
2017-08-22T19:25:54.912Z,62.90
2017-08-22T19:28:23.142Z,63.80
2017-08-22T19:30:50.828Z,65.20
2017-08-22T19:33:18.461Z,66.10
2017-08-22T19:35:46.191Z,65.50
2017-08-22T19:38:14.432Z,65.60
2017-08-22T19:40:42.072Z,65.40
2017-08-22T19:43:09.720Z,67.20
2017-08-22T19:45:38.087Z,67.50
2017-08-22T19:48:05.766Z,68.40
2017-08-22T19:50:46.112Z,68.40
2017-08-22T19:53:14.705Z,69.00
2017-08-22T19:55:42.368Z,70.10
2017-08-22T19:58:10.013Z,70.60
2017-08-22T20:00:37.639Z,71.00
2017-08-22T20:03:05.301Z,72.50
2017-08-22T20:05:32.940Z,73.20
2017-08-22T20:08:00.602Z,73.50
2017-08-22T20:10:28.270Z,73.40
2017-08-22T20:12:55.932Z,73.40
2017-08-22T20:15:23.570Z,74.20
2017-08-22T20:17:51.256Z,74.00
2017-08-22T20:20:18.914Z,74.30
2017-08-22T20:22:46.700Z,74.60
2017-08-22T20:25:14.385Z,74.70
2017-08-22T20:27:43.778Z,75.00
2017-08-22T20:30:11.770Z,74.50
2017-08-22T20:32:39.451Z,76.10
2017-08-22T20:35:07.091Z,77.10
2017-08-22T20:37:34.721Z,77.40
2017-08-22T20:40:02.409Z,77.50
2017-08-22T20:42:30.072Z,77.80
2017-08-22T20:44:57.737Z,77.10
2017-08-22T20:47:25.487Z,77.80
2017-08-22T20:49:53.201Z,77.70
2017-08-22T20:52:21.512Z,77.10
2017-08-22T20:54:49.220Z,76.70
2017-08-22T20:57:16.870Z,77.10
2017-08-22T20:59:44.511Z,77.40
2017-08-22T21:02:12.176Z,76.90
2017-08-22T21:04:39.795Z,77.90
2017-08-22T21:07:07.469Z,78.30
2017-08-22T21:09:35.140Z,78.60
2017-08-22T21:12:02.774Z,78.90
2017-08-22T21:14:30.407Z,78.90
2017-08-22T21:16:58.077Z,78.80
2017-08-22T21:19:25.716Z,79.20
2017-08-22T21:21:53.361Z,78.40
2017-08-22T21:24:21.050Z,78.90
2017-08-22T21:26:48.712Z,79.40
2017-08-22T21:29:16.482Z,78.90
2017-08-22T21:31:44.140Z,78.50
2017-08-22T21:34:11.776Z,78.60
2017-08-22T21:36:39.412Z,79.10
2017-08-22T21:39:07.103Z,80.00
2017-08-22T21:41:34.760Z,80.30
2017-08-22T21:44:02.394Z,79.80
2017-08-22T21:46:30.071Z,79.60
2017-08-22T21:48:57.700Z,79.80
2017-08-22T21:51:25.344Z,80.00
2017-08-22T21:53:53.031Z,80.20
2017-08-22T21:56:20.664Z,80.60
2017-08-22T21:58:48.299Z,80.10
2017-08-22T22:01:16.003Z,79.80
2017-08-22T22:03:43.654Z,79.50
2017-08-22T22:06:11.297Z,80.00
2017-08-22T22:08:38.956Z,80.30
2017-08-22T22:11:06.627Z,80.00
2017-08-22T22:13:34.265Z,79.50
2017-08-22T22:16:01.949Z,80.00
2017-08-22T22:18:29.583Z,79.90
2017-08-22T22:20:57.222Z,80.00
2017-08-22T22:23:24.927Z,79.30
2017-08-22T22:25:52.596Z,78.80
2017-08-22T22:28:20.231Z,80.00
2017-08-22T22:30:47.898Z,79.90
2017-08-22T22:33:15.559Z,79.90
2017-08-22T22:35:43.214Z,79.70
2017-08-22T22:38:10.872Z,80.20
2017-08-22T22:40:38.515Z,80.30
2017-08-22T22:43:06.190Z,80.50
2017-08-22T22:45:33.855Z,80.00
2017-08-22T22:48:01.489Z,80.30
2017-08-22T22:50:29.119Z,80.00
2017-08-22T22:52:56.788Z,79.30
2017-08-22T22:55:24.435Z,79.70
2017-08-22T22:57:52.084Z,79.40
2017-08-22T23:00:19.768Z,79.70
2017-08-22T23:02:47.557Z,79.60
2017-08-22T23:05:15.172Z,80.20
2017-08-22T23:07:42.825Z,80.50
2017-08-22T23:10:10.461Z,80.30
2017-08-22T23:12:38.103Z,80.50
2017-08-22T23:15:05.763Z,80.90
2017-08-22T23:17:33.375Z,80.80
2017-08-22T23:20:01.016Z,80.30
2017-08-22T23:22:28.694Z,80.70
2017-08-22T23:24:56.360Z,80.70
2017-08-22T23:27:24.002Z,80.20
2017-08-22T23:29:51.681Z,80.20
2017-08-22T23:32:19.314Z,80.50
2017-08-22T23:34:46.972Z,81.10
2017-08-22T23:37:14.666Z,80.30
2017-08-22T23:39:42.290Z,80.00
2017-08-22T23:42:09.935Z,79.30
2017-08-22T23:44:37.661Z,79.30
2017-08-22T23:47:05.301Z,80.00
2017-08-22T23:49:32.934Z,80.30
2017-08-22T23:52:00.602Z,80.20
2017-08-22T23:54:28.237Z,80.30
2017-08-22T23:56:55.874Z,80.20
2017-08-22T23:59:23.542Z,79.80
